createdAt,value
2022-11-27T02:45:10.434Z,95575.50
2022-11-27T02:47:40.181Z,95577.31
2022-11-27T02:50:15.528Z,95588.09
2022-11-27T02:52:43.870Z,95588.28
2022-11-27T02:55:16.500Z,95576.72
2022-11-27T02:57:45.321Z,95571.56
2022-11-27T03:00:13.313Z,95573.66
2022-11-27T03:02:46.843Z,95586.88
2022-11-27T03:05:19.051Z,95587.88
2022-11-27T03:08:01.488Z,95580.44
2022-11-27T03:10:50.380Z,95585.50
2022-11-27T03:13:17.451Z,95575.03
2022-11-27T03:16:03.542Z,95570.78
2022-11-27T03:19:00.094Z,95587.53
2022-11-27T03:21:46.974Z,95585.06
2022-11-27T03:24:13.880Z,95571.41
2022-11-27T03:26:41.338Z,95578.06
2022-11-27T03:29:23.851Z,95574.72
2022-11-27T03:31:50.815Z,95569.69
2022-11-27T03:34:18.120Z,95565.06
2022-11-27T03:36:46.283Z,95561.06
2022-11-27T03:39:13.615Z,95566.06
2022-11-27T03:42:06.085Z,95569.56
2022-11-27T03:44:49.049Z,95547.97
2022-11-27T03:48:01.286Z,95570.75
2022-11-27T03:50:47.963Z,95562.56
2022-11-27T03:53:32.401Z,95557.22
2022-11-27T03:56:20.913Z,95564.03
2022-11-27T03:58:55.236Z,95560.69
2022-11-27T04:01:25.086Z,95557.06
2022-11-27T04:03:52.044Z,95550.91
2022-11-27T04:06:18.985Z,95562.56
2022-11-27T04:08:47.570Z,95572.88
2022-11-27T04:11:15.459Z,95558.66
2022-11-27T04:13:42.191Z,95563.16
2022-11-27T04:16:09.271Z,95560.88
2022-11-27T04:18:36.174Z,95558.47
2022-11-27T04:21:03.282Z,95556.06
2022-11-27T04:23:30.031Z,95546.22
2022-11-27T04:25:56.768Z,95554.88
2022-11-27T04:28:23.507Z,95551.38
2022-11-27T04:30:54.849Z,95547.34
2022-11-27T04:33:22.459Z,95549.94
2022-11-27T04:35:50.633Z,95539.69
2022-11-27T04:38:18.570Z,95538.03
2022-11-27T04:40:45.604Z,95546.38
2022-11-27T04:43:13.217Z,95542.00
2022-11-27T04:45:41.314Z,95540.31
2022-11-27T04:48:08.064Z,95536.19
2022-11-27T04:50:34.796Z,95537.03
2022-11-27T04:53:01.587Z,95532.25
2022-11-27T04:55:28.397Z,95533.78
2022-11-27T04:57:55.333Z,95531.41
2022-11-27T05:00:22.424Z,95518.25
2022-11-27T05:02:49.320Z,95523.13
2022-11-27T05:05:17.288Z,95514.75
2022-11-27T05:07:44.091Z,95519.31
2022-11-27T05:10:11.248Z,95528.03
2022-11-27T05:12:38.049Z,95508.22
2022-11-27T05:15:05.855Z,95516.81
2022-11-27T05:17:32.830Z,95517.97
2022-11-27T05:19:59.661Z,95516.16
2022-11-27T05:22:26.380Z,95509.00
2022-11-27T05:24:53.153Z,95511.56
2022-11-27T05:27:19.907Z,95511.69
2022-11-27T05:29:47.096Z,95499.72
2022-11-27T05:32:13.894Z,95502.16
2022-11-27T05:34:40.863Z,95491.25
2022-11-27T05:37:07.972Z,95510.53
2022-11-27T05:39:34.749Z,95491.91
2022-11-27T05:42:01.563Z,95505.31
2022-11-27T05:44:28.397Z,95498.63
2022-11-27T05:46:55.208Z,95491.09
2022-11-27T05:49:21.978Z,95498.81
2022-11-27T05:51:51.310Z,95500.91
2022-11-27T05:54:19.164Z,95499.25
2022-11-27T05:56:45.931Z,95496.03
2022-11-27T05:59:12.845Z,95507.91
2022-11-27T06:01:39.837Z,95512.13
2022-11-27T06:04:06.585Z,95510.31
2022-11-27T06:06:33.321Z,95508.50
2022-11-27T06:09:00.842Z,95507.75
2022-11-27T06:11:27.940Z,95523.19
2022-11-27T06:13:54.636Z,95521.44
2022-11-27T06:16:25.039Z,95512.38
2022-11-27T06:18:56.224Z,95514.75
2022-11-27T06:21:24.320Z,95515.75
2022-11-27T06:23:55.656Z,95515.59
2022-11-27T06:26:29.189Z,95516.34
2022-11-27T06:28:57.414Z,95512.13
2022-11-27T06:31:27.691Z,95523.31
2022-11-27T06:33:56.023Z,95523.78
2022-11-27T06:36:27.729Z,95526.56
2022-11-27T06:38:54.539Z,95525.88
2022-11-27T06:41:27.285Z,95528.31
2022-11-27T06:43:58.834Z,95529.84
2022-11-27T06:46:27.221Z,95530.59
2022-11-27T06:48:58.531Z,95535.44
2022-11-27T06:51:27.945Z,95527.44
2022-11-27T06:53:55.476Z,95539.16
2022-11-27T06:56:26.570Z,95541.38
2022-11-27T06:58:59.293Z,95527.72
2022-11-27T07:01:28.668Z,95527.25
2022-11-27T07:03:56.517Z,95514.22
2022-11-27T07:06:26.010Z,95508.97
2022-11-27T07:08:54.947Z,95503.56
2022-11-27T07:11:25.751Z,95497.63
2022-11-27T07:13:55.192Z,95507.75
2022-11-27T07:16:22.118Z,95488.19
2022-11-27T07:18:55.601Z,95499.78
2022-11-27T07:21:22.872Z,95498.19
2022-11-27T07:23:49.722Z,95491.38
2022-11-27T07:26:21.606Z,95472.72
2022-11-27T07:28:48.956Z,95485.03
2022-11-27T07:31:19.891Z,95483.97
2022-11-27T07:33:46.777Z,95477.00
2022-11-27T07:36:22.315Z,95488.63
2022-11-27T07:38:49.935Z,95486.72
2022-11-27T07:41:17.244Z,95493.72
2022-11-27T07:43:44.957Z,95493.13
2022-11-27T07:46:15.281Z,95486.63
2022-11-27T07:48:42.259Z,95480.63
2022-11-27T07:51:12.275Z,95481.72
2022-11-27T07:53:41.342Z,95478.91
2022-11-27T07:56:10.823Z,95468.44
2022-11-27T07:58:37.932Z,95461.47
2022-11-27T08:01:10.468Z,95443.97
2022-11-27T08:03:37.368Z,95450.16
2022-11-27T08:06:05.279Z,95437.00
2022-11-27T08:08:33.239Z,95428.19
2022-11-27T08:11:00.106Z,95425.06
2022-11-27T08:13:26.859Z,95424.56
2022-11-27T08:15:54.248Z,95425.69
2022-11-27T08:18:21.006Z,95419.84
2022-11-27T08:20:47.807Z,95429.97
2022-11-27T08:23:14.512Z,95428.31
2022-11-27T08:25:41.283Z,95426.81
2022-11-27T08:28:08.029Z,95422.91
2022-11-27T08:30:34.753Z,95428.34
2022-11-27T08:33:01.579Z,95433.56
2022-11-27T08:35:28.380Z,95442.34
2022-11-27T08:37:55.224Z,95442.53
2022-11-27T08:40:21.976Z,95444.91
2022-11-27T08:42:48.693Z,95444.16
2022-11-27T08:45:15.524Z,95443.22
2022-11-27T08:47:43.556Z,95436.25
2022-11-27T08:50:10.829Z,95441.84
2022-11-27T08:52:37.695Z,95450.91
2022-11-27T08:55:04.958Z,95438.28
2022-11-27T08:57:31.704Z,95425.78
2022-11-27T08:59:58.483Z,95409.13
2022-11-27T09:02:25.200Z,95423.31
2022-11-27T09:04:51.943Z,95420.97
2022-11-27T09:07:18.739Z,95416.81
2022-11-27T09:09:45.484Z,95398.41
2022-11-27T09:12:12.618Z,95398.41
2022-11-27T09:14:40.074Z,95400.50
2022-11-27T09:17:07.246Z,95391.72
2022-11-27T09:19:33.993Z,95411.34
2022-11-27T09:22:00.812Z,95412.44
2022-11-27T09:24:27.544Z,95415.56
2022-11-27T09:26:54.450Z,95427.59
2022-11-27T09:29:21.404Z,95440.94
2022-11-27T09:31:48.205Z,95436.78
2022-11-27T09:34:15.156Z,95429.53
2022-11-27T09:36:41.883Z,95420.25
2022-11-27T09:39:08.647Z,95422.16
2022-11-27T09:41:51.404Z,95424.34
2022-11-27T09:44:23.940Z,95406.94
2022-11-27T09:46:52.462Z,95396.31
2022-11-27T09:49:30.016Z,95386.16
2022-11-27T09:52:05.869Z,95396.56
2022-11-27T09:54:41.638Z,95398.16
2022-11-27T09:57:16.185Z,95391.63
2022-11-27T09:59:50.912Z,95401.09
2022-11-27T10:02:25.361Z,95390.16
2022-11-27T10:05:12.879Z,95381.97
2022-11-27T10:08:14.867Z,95378.75
2022-11-27T10:11:11.575Z,95358.56
2022-11-27T10:14:25.246Z,95360.66
2022-11-27T10:17:20.536Z,95354.84
2022-11-27T10:20:32.340Z,95353.59
2022-11-27T10:23:17.194Z,95355.84
2022-11-27T10:26:01.637Z,95352.75
2022-11-27T10:28:49.877Z,95354.19
2022-11-27T10:31:37.729Z,95350.88
2022-11-27T10:34:35.251Z,95344.09
2022-11-27T10:37:42.594Z,95336.50
2022-11-27T10:40:12.386Z,95343.25
2022-11-27T10:43:05.152Z,95331.72
2022-11-27T10:45:46.575Z,95324.03
2022-11-27T10:48:14.342Z,95313.66
2022-11-27T10:50:42.301Z,95311.47
2022-11-27T10:53:16.289Z,95295.78
2022-11-27T10:56:12.638Z,95306.31
2022-11-27T10:58:57.522Z,95313.66
2022-11-27T11:01:27.684Z,95308.03
2022-11-27T11:04:31.635Z,95297.44
2022-11-27T11:06:56.912Z,95288.53
2022-11-27T11:09:31.916Z,95289.16
2022-11-27T11:12:31.007Z,95280.22
2022-11-27T11:15:00.646Z,95284.06
2022-11-27T11:17:34.400Z,95274.59
2022-11-27T11:20:01.327Z,95291.66
2022-11-27T11:22:29.821Z,95291.75
2022-11-27T11:24:57.024Z,95294.56
2022-11-27T11:27:29.373Z,95275.66
2022-11-27T11:30:04.011Z,95271.91
2022-11-27T11:32:36.868Z,95275.22
2022-11-27T11:35:10.947Z,95268.78
2022-11-27T11:37:45.960Z,95268.16
2022-11-27T11:40:16.729Z,95275.03
2022-11-27T11:42:55.396Z,95268.38
2022-11-27T11:45:22.961Z,95264.63
2022-11-27T11:47:52.096Z,95274.81
2022-11-27T11:50:48.289Z,95270.34
2022-11-27T11:53:34.160Z,95265.06
2022-11-27T11:56:34.304Z,95253.84
2022-11-27T11:59:13.072Z,95264.22
2022-11-27T12:02:01.487Z,95252.91
2022-11-27T12:05:15.058Z,95236.19
2022-11-27T12:08:09.201Z,95223.53
2022-11-27T12:10:45.868Z,95220.84
2022-11-27T12:13:45.256Z,95211.56
2022-11-27T12:16:29.105Z,95210.84
2022-11-27T12:19:53.027Z,95213.09
2022-11-27T12:22:44.712Z,95196.50
2022-11-27T12:25:40.808Z,95193.59
2022-11-27T12:28:41.109Z,95195.47
2022-11-27T12:31:44.319Z,95208.75
2022-11-27T12:34:20.805Z,95208.13
2022-11-27T12:37:36.268Z,95207.31
2022-11-27T12:40:14.665Z,95203.78
2022-11-27T12:43:02.895Z,95184.97
2022-11-27T12:45:37.300Z,95179.81
2022-11-27T12:48:20.679Z,95185.44
2022-11-27T12:50:55.391Z,95199.16
2022-11-27T12:53:32.015Z,95190.31
2022-11-27T12:56:18.656Z,95203.91
2022-11-27T12:58:51.989Z,95196.41
2022-11-27T13:01:29.808Z,95188.31
2022-11-27T13:04:16.871Z,95191.50
2022-11-27T13:07:08.885Z,95187.16
2022-11-27T13:09:50.149Z,95177.25
2022-11-27T13:12:50.769Z,95155.44
2022-11-27T13:15:25.324Z,95164.44
2022-11-27T13:18:03.531Z,95156.91
2022-11-27T13:20:38.761Z,95150.28
2022-11-27T13:23:05.533Z,95153.72
2022-11-27T13:25:40.923Z,95142.97
2022-11-27T13:28:08.886Z,95143.59
2022-11-27T13:30:37.752Z,95129.28
2022-11-27T13:33:07.175Z,95133.78
2022-11-27T13:35:43.588Z,95129.88
2022-11-27T13:38:24.613Z,95127.06
2022-11-27T13:40:56.035Z,95131.53
2022-11-27T13:43:36.982Z,95123.28
2022-11-27T13:46:12.487Z,95118.25
2022-11-27T13:48:47.792Z,95112.19
2022-11-27T13:51:27.574Z,95118.66
2022-11-27T13:54:29.162Z,95123.09
2022-11-27T13:56:56.111Z,95106.16
2022-11-27T13:59:25.428Z,95109.91
2022-11-27T14:02:05.327Z,95103.66
2022-11-27T14:04:34.125Z,95106.97
2022-11-27T14:07:11.412Z,95108.41
2022-11-27T14:09:49.380Z,95092.81
2022-11-27T14:12:22.850Z,95077.00
2022-11-27T14:15:20.362Z,95083.41
2022-11-27T14:17:52.643Z,95074.72
2022-11-27T14:20:25.670Z,95079.00
2022-11-27T14:23:14.341Z,95064.94
2022-11-27T14:25:41.553Z,95067.66
2022-11-27T14:28:26.466Z,95071.81
2022-11-27T14:31:00.525Z,95070.59
2022-11-27T14:33:31.379Z,95055.91
2022-11-27T14:36:05.005Z,95060.88
2022-11-27T14:38:35.029Z,95063.59
2022-11-27T14:41:18.522Z,95065.03
2022-11-27T14:43:45.252Z,95054.28
2022-11-27T14:46:21.055Z,95055.72
2022-11-27T14:48:56.574Z,95049.81
2022-11-27T14:51:35.056Z,95042.34
2022-11-27T14:54:07.349Z,95046.59
2022-11-27T14:56:39.463Z,95049.81
2022-11-27T14:59:09.681Z,95039.31
2022-11-27T15:01:37.754Z,95030.56
2022-11-27T15:06:45.620Z,95015.09
2022-11-27T15:09:31.761Z,95024.91
2022-11-27T15:12:04.720Z,95024.06
2022-11-27T15:14:31.947Z,95002.28
2022-11-27T15:16:59.043Z,95013.28
2022-11-27T15:19:42.531Z,95016.47
2022-11-27T15:22:18.104Z,95012.81
2022-11-27T15:24:45.051Z,95007.47
2022-11-27T15:27:14.312Z,95017.41
2022-11-27T15:29:50.052Z,95010.78
2022-11-27T15:32:22.984Z,95018.56
2022-11-27T15:34:54.067Z,95020.97
2022-11-27T15:37:34.623Z,95008.44
2022-11-27T15:40:02.033Z,95008.19
2022-11-27T15:42:29.173Z,95007.16
2022-11-27T15:44:58.051Z,94999.47
2022-11-27T15:47:31.105Z,94999.47
2022-11-27T15:49:59.421Z,94987.53
2022-11-27T15:52:27.606Z,94981.97
2022-11-27T15:54:56.674Z,94988.81
2022-11-27T15:57:24.464Z,94981.03
2022-11-27T15:59:51.257Z,94977.84
2022-11-27T16:02:18.536Z,94975.63
2022-11-27T16:04:45.444Z,94970.63
2022-11-27T16:07:12.226Z,94968.28
2022-11-27T16:09:39.915Z,94970.06
2022-11-27T16:12:07.058Z,94960.47
2022-11-27T16:14:33.995Z,94970.38
2022-11-27T16:17:01.512Z,94962.81
2022-11-27T16:19:28.804Z,94966.25
2022-11-27T16:21:56.867Z,94961.16
2022-11-27T16:24:23.779Z,94964.22
2022-11-27T16:26:50.524Z,94954.63
2022-11-27T16:29:17.243Z,94957.59
2022-11-27T16:31:44.061Z,94968.69
2022-11-27T16:34:10.803Z,94966.59
2022-11-27T16:36:40.964Z,94968.94
2022-11-27T16:39:07.676Z,94966.91
2022-11-27T16:41:34.539Z,94959.00
2022-11-27T16:44:01.592Z,94960.91
2022-11-27T16:46:30.952Z,94945.66
2022-11-27T16:48:59.580Z,94951.72
2022-11-27T16:51:31.316Z,94939.75
2022-11-27T16:54:00.216Z,94929.63
2022-11-27T16:56:29.877Z,94929.16
2022-11-27T16:59:02.749Z,94918.16
2022-11-27T17:01:36.813Z,94912.38
2022-11-27T17:04:07.222Z,94906.34
2022-11-27T17:06:34.162Z,94900.34
2022-11-27T17:09:03.691Z,94910.72
2022-11-27T17:11:33.956Z,94904.56
2022-11-27T17:14:05.066Z,94907.31
2022-11-27T17:16:32.382Z,94896.22
2022-11-27T17:18:59.521Z,94893.81
2022-11-27T17:21:30.225Z,94897.63
2022-11-27T17:24:14.710Z,94879.91
2022-11-27T17:26:43.577Z,94885.09
2022-11-27T17:29:11.973Z,94885.91
2022-11-27T17:31:39.894Z,94879.91
2022-11-27T17:34:07.603Z,94877.06
2022-11-27T17:36:37.404Z,94864.78
2022-11-27T17:39:06.013Z,94868.09
2022-11-27T17:41:33.384Z,94854.88
2022-11-27T17:44:00.512Z,94849.66
2022-11-27T17:46:29.058Z,94852.16
2022-11-27T17:48:58.027Z,94862.19
2022-11-27T17:51:25.464Z,94854.75
2022-11-27T17:53:52.185Z,94850.75
2022-11-27T17:56:22.463Z,94848.75
2022-11-27T17:58:50.088Z,94836.22
2022-11-27T18:01:23.378Z,94842.38
2022-11-27T18:03:50.704Z,94837.28
2022-11-27T18:06:19.625Z,94850.03
2022-11-27T18:08:47.626Z,94844.00
2022-11-27T18:11:22.083Z,94824.16
2022-11-27T18:13:50.200Z,94820.38
2022-11-27T18:16:20.282Z,94826.53
2022-11-27T18:18:48.887Z,94819.56
2022-11-27T18:21:19.780Z,94828.06
2022-11-27T18:24:21.540Z,94820.16
2022-11-27T18:27:07.871Z,94805.28
2022-11-27T18:29:24.127Z,94821.34
2022-11-27T18:31:51.958Z,94813.56
2022-11-27T18:34:19.120Z,94801.16
2022-11-27T18:36:46.178Z,94803.38
2022-11-27T18:39:13.356Z,94796.53
2022-11-27T18:41:40.954Z,94791.34
2022-11-27T18:44:07.725Z,94783.69
2022-11-27T18:46:34.514Z,94787.09
2022-11-27T18:49:01.343Z,94778.09
2022-11-27T18:51:28.156Z,94783.31
2022-11-27T18:53:56.552Z,94780.47
2022-11-27T18:56:30.633Z,94790.88
2022-11-27T18:59:05.949Z,94788.50
2022-11-27T19:01:41.204Z,94783.78
2022-11-27T19:04:08.772Z,94767.50
2022-11-27T19:06:37.523Z,94771.88
2022-11-27T19:09:05.138Z,94761.13
2022-11-27T19:11:32.850Z,94761.81
2022-11-27T19:13:59.825Z,94767.97
2022-11-27T19:16:34.493Z,94761.38
2022-11-27T19:19:03.466Z,94760.41
2022-11-27T19:21:32.972Z,94766.31
2022-11-27T19:24:02.724Z,94759.22
2022-11-27T19:26:34.275Z,94761.59
2022-11-27T19:29:05.675Z,94752.13
2022-11-27T19:31:37.690Z,94748.63
2022-11-27T19:34:06.382Z,94759.00
2022-11-27T19:36:35.108Z,94752.13
2022-11-27T19:39:12.617Z,94734.94
2022-11-27T19:41:39.389Z,94735.03
2022-11-27T19:44:07.361Z,94726.75
2022-11-27T19:46:36.736Z,94729.59
2022-11-27T19:49:12.824Z,94726.91
2022-11-27T19:51:39.925Z,94716.63
2022-11-27T19:54:10.495Z,94723.13
2022-11-27T19:56:40.081Z,94717.22
2022-11-27T19:59:08.559Z,94715.66
2022-11-27T20:01:37.644Z,94703.41
2022-11-27T20:04:05.302Z,94703.66
2022-11-27T20:06:32.715Z,94701.88
2022-11-27T20:09:03.543Z,94699.97
2022-11-27T20:11:35.041Z,94704.81
2022-11-27T20:14:04.496Z,94702.09
2022-11-27T20:16:33.047Z,94701.28
2022-11-27T20:19:01.988Z,94695.38
2022-11-27T20:21:28.707Z,94693.25
2022-11-27T20:23:57.002Z,94682.19
2022-11-27T20:26:26.324Z,94691.72
2022-11-27T20:28:54.133Z,94694.81
2022-11-27T20:31:28.162Z,94704.94
2022-11-27T20:34:00.731Z,94687.84
2022-11-27T20:36:29.922Z,94679.22
2022-11-27T20:38:59.882Z,94690.19
2022-11-27T20:41:27.713Z,94690.19
2022-11-27T20:44:01.009Z,94685.47
2022-11-27T20:46:27.952Z,94673.06
2022-11-27T20:48:55.326Z,94667.88
2022-11-27T20:51:28.468Z,94667.41
2022-11-27T20:53:58.480Z,94666.59
2022-11-27T20:56:25.800Z,94661.66
2022-11-27T20:58:52.644Z,94675.56
2022-11-27T21:01:29.855Z,94671.44
2022-11-27T21:03:59.248Z,94673.31
2022-11-27T21:06:30.537Z,94666.72
2022-11-27T21:09:01.482Z,94663.06
2022-11-27T21:11:31.061Z,94661.88
2022-11-27T21:14:07.332Z,94653.97
2022-11-27T21:16:37.747Z,94650.91
2022-11-27T21:19:07.588Z,94647.97
2022-11-27T21:21:34.988Z,94639.34
2022-11-27T21:24:01.738Z,94631.69
2022-11-27T21:26:29.279Z,94628.25
2022-11-27T21:28:56.037Z,94616.44
2022-11-27T21:31:26.525Z,94622.13
2022-11-27T21:33:58.123Z,94625.19
2022-11-27T21:36:28.239Z,94623.06
2022-11-27T21:38:56.945Z,94622.34
2022-11-27T21:41:24.368Z,94618.13
2022-11-27T21:43:56.699Z,94622.50
2022-11-27T21:46:25.472Z,94611.25
2022-11-27T21:48:55.860Z,94606.31
2022-11-27T21:51:23.164Z,94611.75
2022-11-27T21:53:51.770Z,94605.94
2022-11-27T21:56:21.605Z,94625.19
2022-11-27T21:58:48.417Z,94621.91
2022-11-27T22:01:18.604Z,94609.03
2022-11-27T22:03:47.238Z,94594.66
2022-11-27T22:06:16.496Z,94611.25
2022-11-27T22:08:45.743Z,94613.63
2022-11-27T22:11:17.092Z,94595.09
2022-11-27T22:13:44.350Z,94614.00
2022-11-27T22:16:15.682Z,94610.91
2022-11-27T22:18:42.959Z,94609.84
2022-11-27T22:21:12.472Z,94606.53
2022-11-27T22:23:43.541Z,94597.13
2022-11-27T22:26:14.636Z,94584.16
2022-11-27T22:28:42.450Z,94594.75
2022-11-27T22:31:10.799Z,94590.75
2022-11-27T22:33:38.065Z,94591.34
2022-11-27T22:36:33.900Z,94581.69
2022-11-27T22:39:05.815Z,94586.97
2022-11-27T22:41:36.568Z,94582.97
2022-11-27T22:44:14.456Z,94579.41
2022-11-27T22:46:42.580Z,94580.38
2022-11-27T22:49:13.426Z,94580.81
2022-11-27T22:51:40.604Z,94582.00
2022-11-27T22:54:12.120Z,94566.00
2022-11-27T22:56:39.073Z,94565.63
2022-11-27T23:01:54.540Z,94539.56
2022-11-27T23:04:21.400Z,94563.97
2022-11-27T23:06:48.637Z,94542.53
2022-11-27T23:09:17.866Z,94547.72
2022-11-27T23:11:44.919Z,94541.22
2022-11-27T23:14:11.881Z,94525.66
2022-11-27T23:16:38.669Z,94531.09
2022-11-27T23:19:05.542Z,94529.31
2022-11-27T23:21:35.326Z,94499.94
2022-11-27T23:24:02.188Z,94497.34
2022-11-27T23:26:28.936Z,94519.41
2022-11-27T23:28:56.662Z,94523.28
2022-11-27T23:31:31.181Z,94514.44
2022-11-27T23:34:01.820Z,94515.84
2022-11-27T23:36:30.418Z,94501.34
2022-11-27T23:39:00.853Z,94504.44
2022-11-27T23:41:28.238Z,94500.16
2022-11-27T23:43:55.860Z,94513.13
2022-11-27T23:46:26.771Z,94505.47
2022-11-27T23:48:55.663Z,94490.16
2022-11-27T23:51:27.469Z,94500.75
2022-11-27T23:53:54.691Z,94492.28
2022-11-27T23:56:28.511Z,94488.84
2022-11-27T23:58:56.456Z,94497.34
